NCAR-RAP Real-Time Weather Data

Output produced by METARs form (01 December 2020  17:34 UTC)
found at http://weather.rap.ucar.edu/surface/
 
KAVP 011713Z 22011G15KT 10SM SCT014 BKN024 OVC044 04/01 A2949 RMK AO2 T00390011
KAVP 011654Z 23009G18KT 10SM BKN014 BKN022 OVC041 04/01 A2949 RMK AO2 RAE14 SLP989 P0000 T00390011
KAVP 011633Z 23014G22KT 9SM FEW010 BKN020 OVC042 04/02 A2949 RMK AO2 RAE14 P0000 T00390017
KAVP 011624Z 23010G19KT 10SM SCT010 SCT020 OVC042 04/02 A2950 RMK AO2 RAE14 P0000 T00390017
KAVP 011607Z 22008G17KT 8SM -RA BKN010 BKN026 OVC050 04/02 A2950 RMK AO2 P0000 T00390017
KAVP 011554Z 23011G19KT 5SM -RA BR SCT010 BKN016 OVC023 03/01 A2950 RMK AO2 RAB11 SLP990 P0001 T00330011
KAVP 011536Z 23011G17KT 5SM -RA BKN010 BKN016 OVC021 04/02 A2950 RMK AO2 RAB11 CIG 007V013 P0000 T00440017
KAVP 011527Z 23012G20KT 4SM -RA SCT010 OVC017 04/02 A2950 RMK AO2 RAB11 P0000 T00440017
KAVP 011517Z 23008G16KT 7SM -RA BKN014 OVC019 05/02 A2950 RMK AO2 RAB11 P0000 T00500017
KAVP 011454Z 20008KT 10SM OVC021 06/01 A2948 RMK AO2 SLP982 T00610011 50001
KAVP 011354Z VRB05KT 10SM OVC027 06/01 A2948 RMK AO2 SLP983 T00610011
KAVP 011254Z 22006KT 10SM BKN023 BKN070 06/01 A2948 RMK AO2 SLP981 T00610011
KAVP 011249Z 22004KT 10SM BKN023 BKN070 06/01 A2948 RMK AO2
KAVP 011237Z 23007KT 10SM SCT023 BKN070 06/01 A2948 RMK AO2 T00610011
KAVP 011154Z 22008KT 10SM OVC020 07/02 A2946 RMK AO2 SLP976 70054 T00670022 10094 20061 53010
KAVP 011128Z VRB06KT 10SM BKN020 BKN049 07/03 A2946 RMK AO2 T00670028
KAVP 011118Z 22007KT 10SM SCT020 SCT027 BKN049 07/03 A2945 RMK AO2 T00670028
KAVP 011054Z 21006KT 10SM FEW015 BKN022 BKN027 07/03 A2945 RMK AO2 SLP972 T00670028
KAVP 010954Z 22005KT 10SM OVC023 07/04 A2944 RMK AO2 SLP966 T00720039
KAVP 010854Z 21005KT 10SM OVC018 08/04 A2943 RMK AO2 SLP964 T00830039 50002
KAVP 010754Z 22008KT 10SM OVC020 08/04 A2944 RMK AO2 SLP965 T00830044
KAVP 010654Z 23004KT 10SM OVC019 09/05 A2943 RMK AO2 SLP962 T00940050
KAVP 010554Z 23006KT 10SM OVC023 09/05 A2943 RMK AO2 SLP963 T00940050 10144 20094 53007
KAVP 010454Z 24007KT 10SM BKN017 OVC024 11/07 A2942 RMK AO2 SLP960 T01060067 401670056
KAVP 010354Z 23005KT 10SM BKN016 OVC023 12/09 A2941 RMK AO2 SLP957 T01170089
KAVP 010254Z 23005KT 10SM BKN018 BKN022 OVC033 12/09 A2941 RMK AO2 SLP956 T01220094 51021
KAVP 010243Z 23007KT 10SM SCT015 BKN020 OVC060 12/09 A2940 RMK AO2 T01220094